Alton Bay, New Hampshire
Current Conditions -  °F | °C
As of 12:15 PM on Saturday 20 Dec 2014 (Local Time) from KLCI Reporting Station
Clear Clear  
Wind Chill: 23°   Ceiling: Unl
Heat Index: 30°   Visibility: 10mi
Dew Point: 18°   Wind: 7mph
Humidity: 60%   Direction: 60°ENE
Pressure: 30.25"   Gusts: NA
Location:  43.47°N, 71.23°W
Report Text: KLCI 201715Z AUTO 06006KT 10SM CLR M01/M08 A3025 RMK AO1
Loading
Personal Weather Stations






























Interactive Weather Map New forecast layout! Learn more

10-Day Weather Forecast

Advertisements
Track Severe Weather on mobile